Deering, AK (99736)

1:26 AM AKDT on July 29, 2016 (GMT -0800)
Deering (New) | | Change Station
Active Advisory: Areal Flood Watch

Elev 16 ft 66.07 °N, 162.77 °W | Updated 33 minutes ago

Overcast
Overcast
49 °F
Feels Like 49 °F
N
10
Wind Variable Wind from WNW

Today
High -- | Low -- °F
--% Chance of Precip.
Yesterday
High -- | Low -- °F
Precip. -- in
Pressure 29.81 in
Visibility 10.0 miles
Clouds Overcast 2500 ft
Dew Point 41 °F
Humidity 74%
Rainfall 0.00 in
Snow Depth Not available.
5:32 AM 0:21 AM
Waning Crescent, 23% visible
METAR PADE 290853Z AUTO 30009KT 10SM OVC025 09/05 A2981 RMK AO2 SLP095 T00940050 401280094 53005 TSNO
Pressure 29.81 in
Visibility 10.0 miles
Clouds Overcast 2500 ft
Dew Point 41 °F
Humidity 74%
Rainfall 0.00 in
Snow Depth Not available.
5:32 AM 0:21 AM
Waning Crescent, 23% visible
METAR PADE 290853Z AUTO 30009KT 10SM OVC025 09/05 A2981 RMK AO2 SLP095 T00940050 401280094 53005 TSNO

10-Day Weather Forecast

Almanac

Astronomy

Jul. 29, 2016 Rise Set
Actual Time
Civil Twilight
Nautical Twilight
Astronomical Twilight
Moon
Length of Visible Light
Length of Day
Tomorrow will be .
, % of the Moon is Illuminated

Today's Extremes

State Highs State Lows

Community

WunderPhotos

Upload Photos

1,928,300 photos uploaded!

WunderBlog® & News

Nearby

Air Quality

  Air Quality AQ Index Pollutant
Not available.

Snow Depth

Station Depth Elevation

Earthquake Activity

City Distance Mag. Time & Date
Minimum magnitude displayed is 2.5.

Coastal Water Temperatures

Place Temperature

Stations

Nearby Weather Stations

Station Location Temp. Windchill Dew Point Humidity Wind Precip. Elev Updated Type
                   

Watches & Warnings

Areal Flood Watch
Issued: 1:08 PM AKDT Jul. 28, 2016 – National Weather Service

... Flood Watch remains in effect from Friday afternoon through
Saturday evening...

The Flood Watch continues for

* northern and interior Seward Peninsula.

* From Friday afternoon through Saturday evening

* heavy rainfall is forecast for the area beginning Friday
morning and extending through early Saturday morning. Forecast
rainfall amounts are between 1 and 2 inches with the
possibility of locally heavier amounts.

* Rapid rises will occur on the small streams and rivers
draining the kigluaik and bendeleben mountains. Small streams
and rivers will rise to bankfull or overbank Friday afternoon
into Saturday morning followed by significant rises on the
larger rivers. Minor flooding in possible in low lying areas
in this region.

Precautionary/preparedness actions...

A Flood Watch means there is a potential for flooding based on
current forecasts.

You should monitor later forecasts and be alert for possible
flood warnings. Those living in areas prone to flooding should be
prepared to take action should flooding develop.